createdAt,value
2022-11-22T00:01:11.796Z,1.90
2022-11-22T00:03:59.521Z,1.80
2022-11-22T00:06:47.192Z,1.70
2022-11-22T00:09:34.712Z,1.60
2022-11-22T00:12:22.466Z,1.60
2022-11-22T00:15:11.690Z,1.60
2022-11-22T00:17:59.270Z,1.60
2022-11-22T00:20:46.856Z,1.60
2022-11-22T00:23:35.232Z,1.50
2022-11-22T00:26:22.941Z,1.40
2022-11-22T00:29:10.656Z,1.30
2022-11-22T00:31:58.287Z,1.20
2022-11-22T00:34:45.913Z,1.10
2022-11-22T00:37:33.796Z,1.00
2022-11-22T00:40:21.540Z,1.10
2022-11-22T00:43:08.997Z,1.20
2022-11-22T00:45:56.697Z,1.20
2022-11-22T00:48:44.172Z,1.30
2022-11-22T00:51:31.971Z,1.30
2022-11-22T00:54:19.597Z,1.30
2022-11-22T00:57:07.269Z,1.40
2022-11-22T00:59:54.807Z,1.40
2022-11-22T01:02:42.221Z,1.50
2022-11-22T01:05:29.987Z,1.50
2022-11-22T01:08:17.522Z,1.50
2022-11-22T01:11:05.170Z,1.40
2022-11-22T01:13:52.773Z,1.40
2022-11-22T01:16:44.189Z,1.40
2022-11-22T01:19:32.071Z,1.30
2022-11-22T01:22:20.022Z,1.30
2022-11-22T01:25:08.592Z,1.30
2022-11-22T01:27:56.346Z,1.20
2022-11-22T01:30:44.028Z,1.20
2022-11-22T01:33:31.586Z,1.10
2022-11-22T01:36:19.140Z,1.00
2022-11-22T01:39:06.638Z,1.00
2022-11-22T01:41:54.138Z,0.90
2022-11-22T01:44:43.987Z,0.90
2022-11-22T01:47:31.505Z,0.90
2022-11-22T01:50:22.346Z,0.90
2022-11-22T01:53:33.211Z,0.90
2022-11-22T01:56:22.771Z,0.80
2022-11-22T01:59:17.297Z,0.80
2022-11-22T02:02:07.266Z,0.80
2022-11-22T02:04:58.505Z,1.10
2022-11-22T02:08:31.141Z,1.40
2022-11-22T02:11:20.580Z,1.50
2022-11-22T02:14:11.041Z,1.60
2022-11-22T02:16:58.624Z,1.60
2022-11-22T02:19:50.981Z,1.50
2022-11-22T02:22:58.425Z,1.40
2022-11-22T02:25:54.176Z,1.40
2022-11-22T02:28:42.191Z,1.30
2022-11-22T02:31:46.062Z,1.30
2022-11-22T02:34:49.545Z,1.10
2022-11-22T02:37:37.396Z,1.00
2022-11-22T02:40:27.807Z,0.90
2022-11-22T02:43:38.371Z,0.80
2022-11-22T02:46:26.057Z,0.60
2022-11-22T02:49:16.966Z,0.50
2022-11-22T02:52:04.981Z,0.40
2022-11-22T02:54:52.421Z,0.30
2022-11-22T02:57:39.941Z,0.30
2022-11-22T03:00:28.036Z,0.20
2022-11-22T03:03:15.527Z,0.20
2022-11-22T03:06:03.285Z,0.10
2022-11-22T03:08:55.907Z,0.10
2022-11-22T03:11:44.141Z,0.10
2022-11-22T03:14:31.605Z,0.10
2022-11-22T03:17:19.145Z,0.10
2022-11-22T03:20:07.735Z,0.20
2022-11-22T03:22:55.583Z,0.20
2022-11-22T03:25:43.321Z,0.20
2022-11-22T03:28:30.860Z,0.30
2022-11-22T03:31:18.462Z,0.30
2022-11-22T03:34:06.191Z,0.30
2022-11-22T03:36:53.876Z,0.30
2022-11-22T03:39:41.305Z,0.40
2022-11-22T03:42:28.902Z,0.40
2022-11-22T03:45:16.432Z,0.40
2022-11-22T03:48:04.086Z,0.50
2022-11-22T03:50:51.562Z,0.50
2022-11-22T03:53:39.347Z,0.50
2022-11-22T03:56:26.997Z,0.50
2022-11-22T03:59:14.602Z,0.50
2022-11-22T04:02:02.076Z,0.50
2022-11-22T04:04:49.540Z,0.60
2022-11-22T04:07:37.469Z,0.60
2022-11-22T04:10:25.606Z,0.60
2022-11-22T04:13:13.132Z,0.60
2022-11-22T04:16:00.992Z,0.70
2022-11-22T04:18:48.476Z,0.70
2022-11-22T04:21:35.889Z,0.80
2022-11-22T04:24:42.336Z,0.80
2022-11-22T04:27:30.061Z,0.80
2022-11-22T04:30:20.614Z,0.80
2022-11-22T04:33:08.953Z,0.80
2022-11-22T04:35:56.632Z,0.90
2022-11-22T04:38:44.241Z,0.80
2022-11-22T04:41:31.806Z,0.80
2022-11-22T04:44:38.066Z,0.70
2022-11-22T04:47:48.989Z,0.70
2022-11-22T04:50:58.431Z,0.70
2022-11-22T04:53:46.249Z,0.70
2022-11-22T04:56:33.763Z,0.70
2022-11-22T04:59:21.381Z,0.80
2022-11-22T05:02:09.219Z,1.00
2022-11-22T05:04:56.744Z,1.20
2022-11-22T05:07:44.309Z,1.30
2022-11-22T05:10:52.115Z,1.40
2022-11-22T05:13:42.257Z,1.50
2022-11-22T05:16:30.037Z,1.50
2022-11-22T05:19:17.492Z,1.60
2022-11-22T05:22:04.991Z,1.60
2022-11-22T05:24:52.737Z,1.70
2022-11-22T05:27:40.256Z,1.80
2022-11-22T05:30:27.741Z,1.80
2022-11-22T05:33:15.205Z,1.80
2022-11-22T05:36:02.819Z,1.90
2022-11-22T05:38:50.883Z,1.90
2022-11-22T05:41:38.701Z,1.90
2022-11-22T05:44:26.212Z,1.90
2022-11-22T05:47:13.847Z,1.90
2022-11-22T05:50:01.676Z,1.90
2022-11-22T05:52:49.077Z,1.90
2022-11-22T05:55:36.817Z,1.90
2022-11-22T05:58:24.428Z,1.90
2022-11-22T06:01:19.733Z,2.00
2022-11-22T06:04:07.292Z,2.00
2022-11-22T06:06:54.747Z,2.00
2022-11-22T06:09:42.511Z,2.10
2022-11-22T06:12:30.318Z,2.10
2022-11-22T06:15:17.807Z,2.10
2022-11-22T06:18:05.362Z,2.10
2022-11-22T06:20:56.322Z,2.20
2022-11-22T06:23:44.726Z,2.20
2022-11-22T06:26:37.647Z,2.30
2022-11-22T06:29:26.854Z,2.30
2022-11-22T06:32:14.399Z,2.30
2022-11-22T06:35:03.396Z,2.30
2022-11-22T06:37:52.197Z,2.30
2022-11-22T06:40:42.373Z,2.30
2022-11-22T06:43:32.528Z,2.30
2022-11-22T06:46:23.216Z,2.30
2022-11-22T06:49:10.641Z,2.30
2022-11-22T06:51:58.147Z,2.30
2022-11-22T06:54:45.638Z,2.30
2022-11-22T06:57:33.198Z,2.30
2022-11-22T07:00:20.886Z,2.40
2022-11-22T07:03:08.415Z,2.40
2022-11-22T07:05:56.978Z,2.40
2022-11-22T07:08:46.350Z,2.50
2022-11-22T07:11:34.861Z,2.60
2022-11-22T07:14:22.667Z,2.60
2022-11-22T07:17:10.206Z,2.60
2022-11-22T07:20:00.673Z,2.60
2022-11-22T07:22:48.552Z,2.60
2022-11-22T07:25:35.928Z,2.60
2022-11-22T07:28:24.181Z,2.70
2022-11-22T07:31:14.337Z,2.70
2022-11-22T07:34:01.801Z,2.70
2022-11-22T07:36:52.042Z,2.70
2022-11-22T07:39:43.461Z,2.70
2022-11-22T07:42:31.152Z,2.70
2022-11-22T07:45:19.552Z,2.80
2022-11-22T07:48:07.391Z,2.80
2022-11-22T07:50:54.916Z,2.80
2022-11-22T07:53:42.431Z,2.90
2022-11-22T07:56:30.016Z,2.90
2022-11-22T07:59:17.532Z,2.90
2022-11-22T08:02:05.259Z,2.90
2022-11-22T08:04:53.926Z,2.90
2022-11-22T08:07:51.120Z,2.90
2022-11-22T08:10:38.779Z,3.00
2022-11-22T08:13:26.586Z,3.00
2022-11-22T08:16:16.797Z,3.00
2022-11-22T08:19:05.543Z,3.00
2022-11-22T08:21:58.346Z,3.00
2022-11-22T08:24:46.542Z,3.00
2022-11-22T08:27:34.038Z,3.00
2022-11-22T08:30:21.668Z,3.00
2022-11-22T08:33:09.151Z,3.00
2022-11-22T08:35:56.711Z,3.10
2022-11-22T08:38:44.725Z,3.10
2022-11-22T08:41:35.318Z,3.10
2022-11-22T08:44:22.847Z,3.10
2022-11-22T08:47:10.341Z,3.00
2022-11-22T08:49:57.943Z,3.10
2022-11-22T08:52:46.037Z,3.10
2022-11-22T08:55:33.449Z,3.10
2022-11-22T08:58:22.668Z,3.10
2022-11-22T09:01:16.243Z,3.10
2022-11-22T09:04:04.061Z,3.10
2022-11-22T09:09:59.743Z,3.10
2022-11-22T09:12:47.333Z,3.20
2022-11-22T09:15:34.900Z,3.20
2022-11-22T09:18:22.277Z,3.20
2022-11-22T09:21:18.106Z,3.20
2022-11-22T09:24:06.136Z,3.20
2022-11-22T09:26:53.586Z,3.20
2022-11-22T09:29:41.232Z,3.30
2022-11-22T09:32:33.483Z,3.20
2022-11-22T09:35:21.543Z,3.10
2022-11-22T09:38:09.100Z,3.00
2022-11-22T09:40:58.256Z,2.90
2022-11-22T09:44:16.512Z,3.00
2022-11-22T09:47:25.726Z,2.90
2022-11-22T09:51:07.000Z,3.00
2022-11-22T09:54:41.226Z,3.00
2022-11-22T09:57:49.694Z,2.90
2022-11-22T10:00:37.401Z,3.00
2022-11-22T10:03:46.430Z,3.10
2022-11-22T10:06:50.867Z,3.20
2022-11-22T10:10:06.893Z,3.30
2022-11-22T10:13:17.151Z,3.40
2022-11-22T10:16:31.203Z,3.50
2022-11-22T10:19:35.001Z,3.50
2022-11-22T10:22:23.831Z,3.50
2022-11-22T10:25:40.228Z,3.50
2022-11-22T10:28:54.357Z,3.40
2022-11-22T10:32:11.742Z,3.40
2022-11-22T10:35:44.991Z,3.40
2022-11-22T10:39:02.903Z,3.60
2022-11-22T10:42:34.453Z,3.60
2022-11-22T10:45:41.716Z,3.70
2022-11-22T10:48:59.072Z,3.80
2022-11-22T10:52:09.526Z,3.90
2022-11-22T10:55:53.731Z,3.90
2022-11-22T10:59:12.511Z,4.00
2022-11-22T11:02:13.070Z,4.10
2022-11-22T11:05:06.171Z,4.00
2022-11-22T11:08:04.119Z,4.00
2022-11-22T11:10:58.977Z,4.00
2022-11-22T11:14:04.707Z,4.00
2022-11-22T11:16:53.852Z,4.10
2022-11-22T11:19:45.326Z,4.10
2022-11-22T11:23:12.306Z,4.10
2022-11-22T11:25:45.808Z,4.10
2022-11-22T11:28:33.281Z,4.10
2022-11-22T11:31:21.871Z,4.10
2022-11-22T11:34:37.110Z,4.20
2022-11-22T11:37:35.591Z,4.20
2022-11-22T11:40:32.666Z,4.30
2022-11-22T11:43:23.793Z,4.30
2022-11-22T11:46:41.496Z,4.20
2022-11-22T11:49:32.637Z,4.10
2022-11-22T11:52:23.836Z,4.10
2022-11-22T11:55:17.692Z,4.20
2022-11-22T11:58:23.116Z,4.20
2022-11-22T12:01:14.506Z,4.20
2022-11-22T12:04:07.589Z,4.20
2022-11-22T12:07:03.564Z,4.20
2022-11-22T12:09:54.821Z,4.20
2022-11-22T12:13:04.773Z,4.10
2022-11-22T12:16:36.633Z,4.00
2022-11-22T12:19:46.026Z,4.10
2022-11-22T12:22:50.333Z,4.10
2022-11-22T12:25:40.591Z,4.00
2022-11-22T12:28:30.342Z,4.00
2022-11-22T12:31:41.795Z,4.10
2022-11-22T12:34:56.686Z,4.00
2022-11-22T12:38:11.337Z,4.00
2022-11-22T12:41:05.542Z,4.10
2022-11-22T12:43:59.874Z,4.00
2022-11-22T12:47:02.271Z,4.00
2022-11-22T12:50:06.262Z,4.00
2022-11-22T12:53:16.727Z,4.00
2022-11-22T12:56:10.496Z,4.00
2022-11-22T12:59:32.553Z,4.00
2022-11-22T13:02:59.210Z,4.00
2022-11-22T13:05:56.300Z,4.00
2022-11-22T13:09:05.072Z,4.00
2022-11-22T13:12:11.767Z,4.00
2022-11-22T13:15:01.799Z,4.00
2022-11-22T13:17:50.629Z,4.00
2022-11-22T13:20:47.492Z,4.00
2022-11-22T13:23:53.196Z,4.00
2022-11-22T13:27:01.575Z,4.10
2022-11-22T13:29:58.343Z,4.00
2022-11-22T13:32:59.371Z,4.00
2022-11-22T13:35:46.867Z,4.00
2022-11-22T13:38:35.023Z,4.00
2022-11-22T13:41:40.417Z,4.00
2022-11-22T13:44:31.060Z,4.00
2022-11-22T13:47:24.808Z,4.10
2022-11-22T13:50:40.191Z,4.00
2022-11-22T13:53:37.067Z,4.10
2022-11-22T13:56:27.458Z,4.00
2022-11-22T13:59:19.112Z,4.10
2022-11-22T14:02:23.166Z,4.00
2022-11-22T14:05:34.377Z,4.00
2022-11-22T14:08:47.198Z,4.00
2022-11-22T14:11:57.913Z,4.00
2022-11-22T14:15:18.871Z,4.00
2022-11-22T14:18:38.487Z,4.10
2022-11-22T14:22:20.987Z,4.00
2022-11-22T14:25:20.119Z,4.00
2022-11-22T14:28:58.046Z,4.00
2022-11-22T14:31:57.815Z,4.00
2022-11-22T14:35:03.643Z,4.00
2022-11-22T14:38:22.124Z,4.00
2022-11-22T14:41:27.983Z,4.00
2022-11-22T14:44:22.852Z,3.90
2022-11-22T14:47:14.996Z,3.90
2022-11-22T14:50:13.107Z,3.90
2022-11-22T14:53:23.531Z,3.90
2022-11-22T14:56:38.157Z,3.90
2022-11-22T14:59:46.492Z,3.80
2022-11-22T15:03:11.789Z,3.80
2022-11-22T15:09:16.277Z,3.70
2022-11-22T15:09:53.936Z,3.70
2022-11-22T15:13:13.167Z,3.60
2022-11-22T15:58:49.881Z,3.60
2022-11-22T16:01:43.751Z,3.60
2022-11-22T16:04:36.206Z,3.60
2022-11-22T16:07:43.473Z,3.60
2022-11-22T16:10:43.046Z,3.60
2022-11-22T16:13:36.295Z,3.60
2022-11-22T16:16:32.757Z,3.60
2022-11-22T16:19:30.908Z,3.60
2022-11-22T16:22:32.966Z,3.60
2022-11-22T16:25:33.176Z,3.50
2022-11-22T16:28:31.285Z,3.50
2022-11-22T16:31:27.906Z,3.50
2022-11-22T16:34:15.845Z,3.50
2022-11-22T16:37:23.352Z,3.50
2022-11-22T16:40:15.391Z,3.40
2022-11-22T16:43:08.289Z,3.50
2022-11-22T16:45:56.992Z,3.40
2022-11-22T16:48:45.061Z,3.40
2022-11-22T16:51:32.547Z,3.40
2022-11-22T16:54:21.437Z,3.40
2022-11-22T16:57:14.344Z,3.40
2022-11-22T17:00:01.936Z,3.40
2022-11-22T17:02:49.363Z,3.40
2022-11-22T17:05:37.036Z,3.40
2022-11-22T17:08:24.496Z,3.40
2022-11-22T17:11:14.832Z,3.40
2022-11-22T17:14:02.291Z,3.40
2022-11-22T17:16:49.860Z,3.40
2022-11-22T17:19:52.686Z,3.30
2022-11-22T17:22:43.182Z,3.30
2022-11-22T17:25:30.716Z,3.30
2022-11-22T17:28:18.236Z,3.30
2022-11-22T17:31:14.595Z,3.40
2022-11-22T17:34:02.206Z,3.40
2022-11-22T17:36:49.687Z,3.40
2022-11-22T17:39:37.115Z,3.40
2022-11-22T17:42:24.582Z,3.40
2022-11-22T17:45:12.142Z,3.40
2022-11-22T17:47:59.571Z,3.40
2022-11-22T17:50:47.070Z,3.40
2022-11-22T17:53:34.742Z,3.40
2022-11-22T17:56:22.196Z,3.40
2022-11-22T17:59:09.652Z,3.40
2022-11-22T18:01:57.195Z,3.40
2022-11-22T18:04:44.691Z,3.30
2022-11-22T18:07:32.313Z,3.30
2022-11-22T18:10:19.826Z,3.30
2022-11-22T18:13:20.815Z,3.30
2022-11-22T18:16:14.138Z,3.30
2022-11-22T18:19:01.615Z,3.40
2022-11-22T18:21:49.271Z,3.40
2022-11-22T18:24:36.725Z,3.30
2022-11-22T18:27:24.220Z,3.40
2022-11-22T18:30:13.098Z,3.40
2022-11-22T18:33:01.926Z,3.40
2022-11-22T18:36:49.513Z,3.40
2022-11-22T18:39:17.805Z,3.40
2022-11-22T18:42:10.415Z,3.40
2022-11-22T18:44:58.211Z,3.40
2022-11-22T18:47:46.149Z,3.40
2022-11-22T18:50:34.694Z,3.30
2022-11-22T18:53:22.181Z,3.30
2022-11-22T18:56:13.243Z,3.20
2022-11-22T18:59:00.766Z,3.20
2022-11-22T19:01:48.331Z,3.10
2022-11-22T19:04:36.067Z,3.10
2022-11-22T19:07:23.948Z,3.00
2022-11-22T19:10:11.578Z,3.00
2022-11-22T19:12:59.076Z,3.00
2022-11-22T19:15:46.843Z,3.00
2022-11-22T19:18:42.695Z,2.90
2022-11-22T19:21:31.145Z,2.90
2022-11-22T19:24:18.741Z,2.90
2022-11-22T19:27:06.437Z,2.80
2022-11-22T19:29:54.028Z,2.80
2022-11-22T19:32:41.594Z,2.70
2022-11-22T19:35:29.291Z,2.70
2022-11-22T19:38:16.896Z,2.70
2022-11-22T19:41:10.021Z,2.70
2022-11-22T19:43:58.220Z,2.60
2022-11-22T19:46:45.992Z,2.60
2022-11-22T19:49:33.494Z,2.60
2022-11-22T19:52:21.301Z,2.50
2022-11-22T19:55:08.951Z,2.50
2022-11-22T19:57:56.562Z,2.50
2022-11-22T20:00:44.287Z,2.30
2022-11-22T20:03:36.703Z,2.30
2022-11-22T20:06:25.462Z,2.20
2022-11-22T20:09:13.547Z,2.20
2022-11-22T20:12:01.262Z,2.30
2022-11-22T20:14:49.370Z,2.30
2022-11-22T20:17:37.037Z,2.40
2022-11-22T20:20:24.749Z,2.40
2022-11-22T20:23:12.417Z,2.40
2022-11-22T20:26:13.346Z,2.50
2022-11-22T20:29:12.268Z,2.50
2022-11-22T20:32:01.815Z,2.40
2022-11-22T20:34:49.372Z,2.40
2022-11-22T20:37:36.937Z,2.40
2022-11-22T20:40:24.568Z,2.40
2022-11-22T20:43:12.256Z,2.40
2022-11-22T20:46:08.824Z,2.40
2022-11-22T20:49:00.042Z,2.30
2022-11-22T20:51:47.753Z,2.40
2022-11-22T20:54:35.421Z,2.40
2022-11-22T20:57:22.863Z,2.40
2022-11-22T21:00:11.646Z,2.30
2022-11-22T21:02:59.372Z,2.40
2022-11-22T21:05:50.867Z,2.40
2022-11-22T21:08:39.259Z,2.30
2022-11-22T21:11:29.757Z,2.30
2022-11-22T21:14:17.203Z,2.30
2022-11-22T21:17:29.974Z,2.30
2022-11-22T21:20:14.442Z,2.30
2022-11-22T21:23:02.030Z,2.30
2022-11-22T21:25:50.616Z,2.30
2022-11-22T21:28:38.986Z,2.30
2022-11-22T21:31:27.473Z,2.30
2022-11-22T21:34:15.367Z,2.30
2022-11-22T21:37:02.838Z,2.30
2022-11-22T21:39:50.336Z,2.30
2022-11-22T21:42:38.302Z,2.40
2022-11-22T21:45:25.742Z,2.40
2022-11-22T21:48:13.336Z,2.40
2022-11-22T21:51:00.752Z,2.40
2022-11-22T21:53:48.173Z,2.40
2022-11-22T21:56:36.112Z,2.40
2022-11-22T21:59:23.632Z,2.50
2022-11-22T22:02:11.222Z,2.50
2022-11-22T22:04:59.137Z,2.50
2022-11-22T22:07:55.009Z,2.50
2022-11-22T22:10:42.687Z,2.60
2022-11-22T22:13:30.877Z,2.60
2022-11-22T22:16:23.799Z,2.60
2022-11-22T22:19:11.281Z,2.60
2022-11-22T22:21:58.754Z,2.60
2022-11-22T22:24:46.285Z,2.60
2022-11-22T22:27:34.791Z,2.60
2022-11-22T22:30:23.276Z,2.60
2022-11-22T22:33:11.167Z,2.60
2022-11-22T22:36:00.487Z,2.50
2022-11-22T22:38:48.796Z,2.50
2022-11-22T22:41:36.427Z,2.60
2022-11-22T22:44:23.932Z,2.50
2022-11-22T22:47:11.636Z,2.50
2022-11-22T22:49:59.142Z,2.50
2022-11-22T22:52:46.661Z,2.50
2022-11-22T22:55:34.131Z,2.50
2022-11-22T22:58:22.099Z,2.50
2022-11-22T23:01:21.961Z,2.60
2022-11-22T23:04:10.047Z,2.60
2022-11-22T23:06:58.767Z,2.50
2022-11-22T23:09:46.361Z,2.60
2022-11-22T23:12:33.841Z,2.60
2022-11-22T23:15:37.965Z,2.60
2022-11-22T23:18:26.020Z,2.60
2022-11-22T23:21:16.180Z,2.60
2022-11-22T23:24:04.633Z,2.60
2022-11-22T23:26:52.081Z,2.60
2022-11-22T23:29:39.626Z,2.60
2022-11-22T23:32:31.031Z,2.60
2022-11-22T23:35:18.931Z,2.60
2022-11-22T23:38:06.576Z,2.70
2022-11-22T23:40:54.371Z,2.60
2022-11-22T23:43:44.921Z,2.70
2022-11-22T23:46:32.500Z,2.70
2022-11-22T23:49:20.004Z,2.70
2022-11-22T23:52:07.577Z,2.70
2022-11-22T23:54:54.993Z,2.70
2022-11-22T23:57:42.455Z,2.70
